createdAt,value
2022-12-25T00:02:22.609Z,99247.56
2022-12-25T00:04:53.824Z,99239.22
2022-12-25T00:07:22.466Z,99230.28
2022-12-25T00:09:50.857Z,99235.78
2022-12-25T00:12:22.564Z,99244.41
2022-12-25T00:14:51.051Z,99244.03
2022-12-25T00:17:20.623Z,99248.50
2022-12-25T00:19:50.572Z,99240.06
2022-12-25T00:22:19.422Z,99236.13
2022-12-25T00:24:51.808Z,99242.00
2022-12-25T00:27:20.503Z,99239.41
2022-12-25T00:29:48.865Z,99239.09
2022-12-25T00:32:22.719Z,99252.06
2022-12-25T00:34:52.444Z,99260.53
2022-12-25T00:37:28.471Z,99255.81
2022-12-25T00:39:58.463Z,99264.94
2022-12-25T00:42:28.675Z,99270.81
2022-12-25T00:44:57.230Z,99269.78
2022-12-25T00:47:27.790Z,99265.09
2022-12-25T00:49:56.797Z,99268.78
2022-12-25T00:52:25.606Z,99279.50
2022-12-25T00:54:55.034Z,99279.50
2022-12-25T00:57:23.329Z,99276.44
2022-12-25T00:59:52.020Z,99276.63
2022-12-25T01:02:27.737Z,99285.50
2022-12-25T01:05:00.879Z,99287.09
2022-12-25T01:07:29.666Z,99283.94
2022-12-25T01:10:19.842Z,99281.63
2022-12-25T01:12:51.295Z,99292.63
2022-12-25T01:15:20.428Z,99298.09
2022-12-25T01:17:51.344Z,99299.53
2022-12-25T01:20:21.253Z,99300.50
2022-12-25T01:22:49.452Z,99298.44
2022-12-25T01:25:17.628Z,99303.28
2022-12-25T01:27:46.010Z,99288.22
2022-12-25T01:30:15.683Z,99282.56
2022-12-25T01:32:44.349Z,99281.91
2022-12-25T01:35:13.004Z,99276.22
2022-12-25T01:37:42.978Z,99280.22
2022-12-25T01:40:12.394Z,99272.72
2022-12-25T01:42:41.008Z,99277.22
2022-12-25T01:45:40.183Z,99274.47
2022-12-25T01:48:14.665Z,99274.41
2022-12-25T01:50:46.438Z,99285.63
2022-12-25T01:53:16.314Z,99282.41
2022-12-25T01:55:47.086Z,99291.72
2022-12-25T01:58:15.774Z,99289.63
2022-12-25T02:00:45.432Z,99298.25
2022-12-25T02:03:14.428Z,99301.47
2022-12-25T02:05:42.816Z,99298.09
2022-12-25T02:08:13.533Z,99300.66
2022-12-25T02:10:46.605Z,99290.75
2022-12-25T02:13:19.716Z,99283.59
2022-12-25T02:16:00.680Z,99277.66
2022-12-25T02:18:39.495Z,99269.56
2022-12-25T02:21:38.957Z,99282.06
2022-12-25T02:24:44.036Z,99280.78
2022-12-25T02:27:34.587Z,99265.97
2022-12-25T02:30:10.446Z,99266.81
2022-12-25T02:32:46.828Z,99251.25
2022-12-25T02:35:20.900Z,99255.66
2022-12-25T02:37:56.412Z,99258.22
2022-12-25T02:40:29.662Z,99255.66
2022-12-25T02:43:19.783Z,99265.22
2022-12-25T02:46:10.832Z,99257.19
2022-12-25T02:49:00.811Z,99267.09
2022-12-25T02:51:50.651Z,99269.47
2022-12-25T02:54:40.734Z,99275.50
2022-12-25T02:57:30.005Z,99270.31
2022-12-25T03:00:19.695Z,99265.88
2022-12-25T03:03:07.675Z,99261.81
2022-12-25T03:05:57.236Z,99261.28
2022-12-25T03:08:31.817Z,99271.78
2022-12-25T03:11:22.194Z,99273.22
2022-12-25T03:13:53.791Z,99269.91
2022-12-25T03:16:40.047Z,99262.53
2022-12-25T03:19:23.842Z,99270.75
2022-12-25T03:22:09.682Z,99267.91
2022-12-25T03:24:55.496Z,99268.00
2022-12-25T03:27:23.976Z,99269.19
2022-12-25T03:30:11.923Z,99275.84
2022-12-25T03:32:44.893Z,99280.28
2022-12-25T03:35:25.951Z,99280.28
2022-12-25T03:38:37.541Z,99275.69
2022-12-25T03:41:37.369Z,99278.06
2022-12-25T03:44:29.610Z,99275.94
2022-12-25T03:47:24.518Z,99269.38
2022-12-25T03:50:18.893Z,99271.00
2022-12-25T03:53:11.709Z,99272.13
2022-12-25T03:55:55.366Z,99276.59
2022-12-25T03:58:45.877Z,99273.44
2022-12-25T04:01:33.171Z,99269.38
2022-12-25T04:04:19.101Z,99266.97
2022-12-25T04:07:04.363Z,99266.66
2022-12-25T04:09:51.358Z,99255.03
2022-12-25T04:12:37.136Z,99252.78
2022-12-25T04:15:23.042Z,99257.25
2022-12-25T04:18:10.880Z,99242.97
2022-12-25T04:20:56.123Z,99237.91
2022-12-25T04:23:43.153Z,99227.59
2022-12-25T04:26:30.258Z,99220.03
2022-12-25T04:29:17.900Z,99221.06
2022-12-25T04:32:02.811Z,99219.66
2022-12-25T04:34:48.411Z,99227.69
2022-12-25T04:37:16.885Z,99228.47
2022-12-25T04:39:45.183Z,99220.78
2022-12-25T04:42:15.079Z,99214.56
2022-12-25T04:44:43.479Z,99224.47
2022-12-25T04:47:11.984Z,99230.59
2022-12-25T04:49:40.536Z,99219.59
2022-12-25T04:52:09.186Z,99228.91
2022-12-25T04:54:39.219Z,99238.25
2022-12-25T04:57:09.050Z,99220.69
2022-12-25T04:59:38.901Z,99220.59
2022-12-25T05:02:07.404Z,99226.72
2022-12-25T05:04:36.053Z,99228.09
2022-12-25T05:07:06.747Z,99232.13
2022-12-25T05:09:36.741Z,99238.66
2022-12-25T05:12:05.376Z,99245.66
2022-12-25T05:14:35.022Z,99254.19
2022-12-25T05:17:08.022Z,99253.84
2022-12-25T05:19:36.837Z,99241.84
2022-12-25T05:22:05.486Z,99252.06
2022-12-25T05:24:38.417Z,99246.34
2022-12-25T05:27:06.655Z,99250.28
2022-12-25T05:29:37.306Z,99251.22
2022-12-25T05:32:07.701Z,99245.41
2022-12-25T05:34:36.120Z,99246.44
2022-12-25T05:37:04.563Z,99244.56
2022-12-25T05:39:33.240Z,99249.00
2022-12-25T05:42:01.753Z,99249.75
2022-12-25T05:44:33.621Z,99250.28
2022-12-25T05:47:02.024Z,99255.91
2022-12-25T05:49:31.992Z,99256.00
2022-12-25T05:52:00.351Z,99247.28
2022-12-25T05:54:31.081Z,99246.78
2022-12-25T05:57:00.499Z,99240.13
2022-12-25T05:59:30.645Z,99236.88
2022-12-25T06:02:00.870Z,99244.38
2022-12-25T06:04:29.237Z,99240.66
2022-12-25T06:07:00.304Z,99233.41
2022-12-25T06:09:28.866Z,99208.59
2022-12-25T06:12:00.317Z,99213.69
2022-12-25T06:14:29.852Z,99204.22
2022-12-25T06:16:58.297Z,99207.72
2022-12-25T06:19:26.593Z,99214.22
2022-12-25T06:21:55.335Z,99216.16
2022-12-25T06:24:25.459Z,99210.66
2022-12-25T06:26:54.678Z,99215.91
2022-12-25T06:29:32.352Z,99221.53
2022-12-25T06:32:01.582Z,99210.72
2022-12-25T06:34:30.121Z,99210.63
2022-12-25T06:37:01.940Z,99208.25
2022-12-25T06:39:32.172Z,99202.03
2022-12-25T06:42:00.714Z,99195.31
2022-12-25T06:44:31.324Z,99204.34
2022-12-25T06:46:59.764Z,99202.56
2022-12-25T06:49:28.568Z,99204.50
2022-12-25T06:51:57.180Z,99200.25
2022-12-25T06:54:25.637Z,99203.66
2022-12-25T06:56:56.976Z,99202.59
2022-12-25T06:59:25.672Z,99208.00
2022-12-25T07:01:56.320Z,99202.72
2022-12-25T07:04:32.243Z,99208.09
2022-12-25T07:07:09.296Z,99209.25
2022-12-25T07:09:39.377Z,99220.31
2022-12-25T07:12:21.371Z,99224.59
2022-12-25T07:14:50.367Z,99212.75
2022-12-25T07:17:19.573Z,99215.97
2022-12-25T07:19:48.923Z,99210.00
2022-12-25T07:22:18.142Z,99205.31
2022-12-25T07:24:46.205Z,99204.63
2022-12-25T07:27:16.625Z,99200.59
2022-12-25T07:29:45.064Z,99206.16
2022-12-25T07:32:16.430Z,99198.16
2022-12-25T07:34:46.115Z,99194.38
2022-12-25T07:37:14.920Z,99193.81
2022-12-25T07:39:43.327Z,99186.97
2022-12-25T07:42:18.068Z,99182.09
2022-12-25T07:44:53.729Z,99180.09
2022-12-25T07:47:22.135Z,99180.97
2022-12-25T07:49:51.503Z,99178.69
2022-12-25T07:52:21.128Z,99169.72
2022-12-25T07:54:49.651Z,99165.16
2022-12-25T07:57:19.367Z,99163.03
2022-12-25T07:59:48.203Z,99159.25
2022-12-25T08:02:18.449Z,99164.53
2022-12-25T08:04:47.287Z,99170.00
2022-12-25T08:07:18.126Z,99161.03
2022-12-25T08:09:46.661Z,99174.81
2022-12-25T08:12:15.389Z,99178.50
2022-12-25T08:14:44.025Z,99182.19
2022-12-25T08:17:12.463Z,99170.97
2022-12-25T08:19:42.785Z,99177.41
2022-12-25T08:22:13.918Z,99182.69
2022-12-25T08:24:48.395Z,99162.00
2022-12-25T08:27:17.283Z,99146.97
2022-12-25T08:29:47.710Z,99165.66
2022-12-25T08:32:20.026Z,99168.88
2022-12-25T08:34:52.985Z,99181.44
2022-12-25T08:37:24.426Z,99176.94
2022-12-25T08:39:55.069Z,99200.41
2022-12-25T08:42:28.709Z,99194.56
2022-12-25T08:44:57.161Z,99168.16
2022-12-25T08:47:31.312Z,99156.78
2022-12-25T08:50:04.176Z,99130.28
2022-12-25T08:52:39.403Z,99110.53
2022-12-25T08:55:12.319Z,99111.31
2022-12-25T08:57:47.230Z,99091.47
2022-12-25T09:00:21.954Z,99111.94
2022-12-25T09:02:54.021Z,99117.44
2022-12-25T09:05:27.144Z,99113.47
2022-12-25T09:08:05.775Z,99128.78
2022-12-25T09:10:41.430Z,99116.34
2022-12-25T09:15:58.965Z,99110.16
2022-12-25T09:18:31.383Z,99120.78
2022-12-25T09:21:15.896Z,99138.25
2022-12-25T09:23:46.891Z,99153.81
2022-12-25T09:26:23.146Z,99160.06
2022-12-25T09:28:52.840Z,99167.34
2022-12-25T09:31:23.882Z,99168.56
2022-12-25T09:33:52.942Z,99170.06
2022-12-25T09:36:26.070Z,99157.50
2022-12-25T09:38:55.018Z,99143.53
2022-12-25T09:41:31.718Z,99145.22
2022-12-25T09:44:06.301Z,99128.63
2022-12-25T09:46:42.354Z,99124.72
2022-12-25T09:49:21.510Z,99125.03
2022-12-25T09:51:59.579Z,99123.31
2022-12-25T09:54:43.333Z,99120.00
2022-12-25T09:57:13.810Z,99119.81
2022-12-25T09:59:44.387Z,99117.81
2022-12-25T10:02:37.535Z,99132.91
2022-12-25T10:05:27.700Z,99138.03
2022-12-25T10:08:07.987Z,99127.28
2022-12-25T10:11:04.245Z,99107.53
2022-12-25T10:13:54.865Z,99099.53
2022-12-25T10:16:33.238Z,99099.22
2022-12-25T10:19:17.047Z,99097.34
2022-12-25T10:21:49.654Z,99093.25
2022-12-25T10:24:34.752Z,99076.47
2022-12-25T10:27:09.937Z,99071.56
2022-12-25T10:29:43.819Z,99060.69
2022-12-25T10:32:14.845Z,99062.78
2022-12-25T10:34:46.628Z,99055.41
2022-12-25T10:37:15.020Z,99057.84
2022-12-25T10:39:56.646Z,99055.59
2022-12-25T10:42:42.496Z,99044.66
2022-12-25T10:45:11.839Z,99029.13
2022-12-25T10:47:43.425Z,99008.19
2022-12-25T10:50:19.712Z,99014.63
2022-12-25T10:52:59.960Z,99013.47
2022-12-25T10:55:35.771Z,99012.06
2022-12-25T10:58:04.383Z,98999.59
2022-12-25T11:00:35.005Z,98987.13
2022-12-25T11:03:05.628Z,98994.50
2022-12-25T11:05:39.116Z,98987.78
2022-12-25T11:08:26.935Z,98993.63
2022-12-25T11:11:00.097Z,98986.75
2022-12-25T11:13:31.113Z,99000.16
2022-12-25T11:16:11.067Z,99010.47
2022-12-25T11:18:47.988Z,99018.28
2022-12-25T11:21:20.508Z,99017.81
2022-12-25T11:23:52.949Z,99012.31
2022-12-25T11:26:22.872Z,99002.59
2022-12-25T11:28:54.056Z,99006.19
2022-12-25T11:31:24.981Z,99005.88
2022-12-25T11:33:56.607Z,99018.53
2022-12-25T11:36:31.756Z,99012.09
2022-12-25T11:39:09.441Z,99010.00
2022-12-25T11:41:44.183Z,99002.66
2022-12-25T11:44:30.238Z,98989.16
2022-12-25T11:47:05.356Z,98993.59
2022-12-25T11:49:40.190Z,98977.72
2022-12-25T11:52:13.914Z,98982.78
2022-12-25T11:54:49.321Z,98988.13
2022-12-25T11:57:19.662Z,98984.59
2022-12-25T11:59:57.065Z,98991.91
2022-12-25T12:02:34.685Z,98981.84
2022-12-25T12:05:10.938Z,98965.34
2022-12-25T12:07:44.021Z,98951.06
2022-12-25T12:10:19.946Z,98940.25
2022-12-25T12:12:59.127Z,98947.59
2022-12-25T12:15:31.321Z,98949.56
2022-12-25T12:18:10.736Z,98939.72
2022-12-25T12:20:40.012Z,98934.13
2022-12-25T12:23:16.832Z,98921.44
2022-12-25T12:25:51.088Z,98890.44
2022-12-25T12:28:34.527Z,98854.50
2022-12-25T12:31:08.109Z,98834.13
2022-12-25T12:33:40.658Z,98847.41
2022-12-25T12:36:17.349Z,98879.69
2022-12-25T12:38:46.337Z,98873.56
2022-12-25T12:41:16.497Z,98875.72
2022-12-25T12:43:56.517Z,98871.66
2022-12-25T12:46:31.300Z,98856.25
2022-12-25T12:49:12.382Z,98852.16
2022-12-25T12:51:41.441Z,98837.38
2022-12-25T12:54:20.854Z,98831.47
2022-12-25T12:57:00.297Z,98830.94
2022-12-25T12:59:43.730Z,98837.50
2022-12-25T13:02:45.718Z,98837.84
2022-12-25T13:05:21.683Z,98835.09
2022-12-25T13:07:59.720Z,98834.47
2022-12-25T13:10:34.192Z,98842.41
2022-12-25T13:13:06.355Z,98834.25
2022-12-25T13:15:37.753Z,98829.28
2022-12-25T13:18:09.088Z,98822.53
2022-12-25T13:20:47.004Z,98819.88
2022-12-25T13:23:26.706Z,98824.97
2022-12-25T13:25:56.432Z,98832.19
2022-12-25T13:28:29.767Z,98827.09
2022-12-25T13:31:09.119Z,98830.28
2022-12-25T13:33:39.434Z,98823.69
2022-12-25T13:36:14.351Z,98827.75
2022-12-25T13:38:49.414Z,98828.38
2022-12-25T13:41:38.504Z,98828.19
2022-12-25T13:44:18.683Z,98827.84
2022-12-25T13:46:55.298Z,98835.16
2022-12-25T13:49:25.795Z,98829.22
2022-12-25T13:51:55.236Z,98828.19
2022-12-25T13:54:28.276Z,98821.19
2022-12-25T13:57:04.697Z,98816.94
2022-12-25T13:59:33.453Z,98807.28
2022-12-25T14:02:05.611Z,98801.38
2022-12-25T14:04:45.786Z,98801.03
2022-12-25T14:07:23.425Z,98786.66
2022-12-25T14:09:59.428Z,98783.34
2022-12-25T14:12:30.511Z,98784.53
2022-12-25T14:15:02.856Z,98790.25
2022-12-25T14:17:35.208Z,98778.91
2022-12-25T14:20:08.656Z,98774.28
2022-12-25T14:22:38.747Z,98775.41
2022-12-25T14:25:16.930Z,98763.47
2022-12-25T14:27:50.764Z,98770.44
2022-12-25T14:30:19.876Z,98771.31
2022-12-25T14:32:52.467Z,98766.13
2022-12-25T14:35:23.727Z,98776.69
2022-12-25T14:38:00.326Z,98771.81
2022-12-25T14:40:31.961Z,98774.81
2022-12-25T14:43:05.698Z,98786.13
2022-12-25T14:45:39.654Z,98791.69
2022-12-25T14:48:27.512Z,98779.66
2022-12-25T14:51:00.884Z,98771.41
2022-12-25T14:53:37.466Z,98774.56
2022-12-25T14:56:10.945Z,98773.41
2022-12-25T14:58:48.584Z,98779.53
2022-12-25T15:01:23.718Z,98782.97
2022-12-25T15:03:54.055Z,98783.81
2022-12-25T15:06:26.236Z,98779.13
2022-12-25T15:09:00.534Z,98777.44
2022-12-25T15:11:33.236Z,98786.78
2022-12-25T15:14:06.537Z,98772.66
2022-12-25T15:16:43.121Z,98792.59
2022-12-25T15:19:23.404Z,98791.53
2022-12-25T15:21:56.343Z,98793.22
2022-12-25T15:24:25.042Z,98808.13
2022-12-25T15:26:56.115Z,98804.97
2022-12-25T15:29:59.739Z,98803.59
2022-12-25T15:32:18.743Z,98805.38
2022-12-25T15:34:50.241Z,98809.94
2022-12-25T15:37:19.963Z,98812.59
2022-12-25T15:39:49.508Z,98815.78
2022-12-25T15:42:20.879Z,98797.97
2022-12-25T15:44:49.495Z,98803.28
2022-12-25T15:47:23.234Z,98816.63
2022-12-25T15:49:53.679Z,98813.53
2022-12-25T15:52:22.586Z,98822.44
2022-12-25T15:54:51.087Z,98820.22
2022-12-25T15:57:22.326Z,98814.41
2022-12-25T15:59:50.986Z,98813.53
2022-12-25T16:02:21.447Z,98810.69
2022-12-25T16:04:55.946Z,98827.50
2022-12-25T16:07:26.075Z,98820.59
2022-12-25T16:09:55.838Z,98809.16
2022-12-25T16:12:25.218Z,98799.94
2022-12-25T16:14:53.590Z,98789.88
2022-12-25T16:17:23.399Z,98784.09
2022-12-25T16:19:51.565Z,98786.63
2022-12-25T16:22:25.749Z,98778.91
2022-12-25T16:24:56.080Z,98773.25
2022-12-25T16:27:26.012Z,98762.28
2022-12-25T16:29:54.361Z,98769.38
2022-12-25T16:32:23.067Z,98776.59
2022-12-25T16:34:51.781Z,98785.78
2022-12-25T16:37:22.979Z,98763.44
2022-12-25T16:39:51.286Z,98758.97
2022-12-25T16:42:19.809Z,98758.06
2022-12-25T16:44:48.221Z,98761.53
2022-12-25T16:47:18.091Z,98773.41
2022-12-25T16:49:46.889Z,98774.13
2022-12-25T16:52:15.718Z,98769.91
2022-12-25T16:54:46.645Z,98784.63
2022-12-25T16:57:16.970Z,98776.66
2022-12-25T16:59:49.531Z,98780.69
2022-12-25T17:02:21.141Z,98784.09
2022-12-25T17:04:50.521Z,98786.63
2022-12-25T17:07:19.336Z,98782.09
2022-12-25T17:09:51.633Z,98782.09
2022-12-25T17:12:20.263Z,98786.41
2022-12-25T17:14:48.994Z,98783.44
2022-12-25T17:17:21.630Z,98783.13
2022-12-25T17:19:50.936Z,98776.88
2022-12-25T17:22:21.809Z,98781.00
2022-12-25T17:24:51.851Z,98778.47
2022-12-25T17:27:19.933Z,98772.41
2022-12-25T17:29:49.737Z,98765.44
2022-12-25T17:32:17.853Z,98762.03
2022-12-25T17:34:46.728Z,98764.91
2022-12-25T17:37:16.541Z,98768.91
2022-12-25T17:39:44.932Z,98760.91
2022-12-25T17:42:15.005Z,98769.56
2022-12-25T17:44:45.484Z,98763.09
2022-12-25T17:47:13.978Z,98761.63
2022-12-25T17:49:42.619Z,98769.16
2022-12-25T17:52:11.241Z,98778.78
2022-12-25T17:54:43.145Z,98766.50
2022-12-25T17:57:11.785Z,98770.34
2022-12-25T17:59:44.287Z,98767.13
2022-12-25T18:02:14.107Z,98771.91
2022-12-25T18:04:42.655Z,98760.78
2022-12-25T18:07:12.658Z,98755.91
2022-12-25T18:09:41.184Z,98753.16
2022-12-25T18:12:09.760Z,98771.19
2022-12-25T18:14:38.440Z,98764.91
2022-12-25T18:17:10.710Z,98762.91
2022-12-25T18:19:41.715Z,98762.91
2022-12-25T18:22:11.176Z,98757.19
2022-12-25T18:24:40.041Z,98754.31
2022-12-25T18:27:09.715Z,98762.38
2022-12-25T18:29:38.769Z,98775.19
2022-12-25T18:32:12.297Z,98770.72
2022-12-25T18:34:41.344Z,98772.94
2022-12-25T18:37:09.526Z,98765.13
2022-12-25T18:39:45.100Z,98764.47
2022-12-25T18:42:30.653Z,98764.59
2022-12-25T18:44:59.444Z,98753.16
2022-12-25T18:47:29.489Z,98763.13
2022-12-25T18:49:58.795Z,98759.50
2022-12-25T18:52:48.251Z,98762.69
2022-12-25T18:55:17.701Z,98763.84
2022-12-25T18:57:48.113Z,98764.38
2022-12-25T19:00:17.291Z,98759.09
2022-12-25T19:02:55.439Z,98761.63
2022-12-25T19:05:28.722Z,98753.06
2022-12-25T19:07:57.586Z,98757.19
2022-12-25T19:10:26.294Z,98754.13
2022-12-25T19:12:57.003Z,98762.59
2022-12-25T19:15:28.406Z,98764.19
2022-12-25T19:17:58.858Z,98782.06
2022-12-25T19:20:30.027Z,98768.84
2022-12-25T19:22:58.848Z,98773.06
2022-12-25T19:25:33.126Z,98769.91
2022-12-25T19:28:02.248Z,98777.97
2022-12-25T19:30:31.612Z,98780.91
2022-12-25T19:33:10.077Z,98778.81
2022-12-25T19:35:45.729Z,98780.91
2022-12-25T19:38:16.816Z,98768.53
2022-12-25T19:41:02.530Z,98765.34
2022-12-25T19:43:35.272Z,98755.94
2022-12-25T19:46:06.431Z,98760.81
2022-12-25T19:48:38.100Z,98763.34
2022-12-25T19:51:18.681Z,98747.56
2022-12-25T19:53:48.826Z,98744.50
2022-12-25T19:56:18.464Z,98754.78
2022-12-25T19:58:48.853Z,98759.53
2022-12-25T20:01:22.337Z,98760.50
2022-12-25T20:04:00.249Z,98759.13
2022-12-25T20:06:30.929Z,98750.22
2022-12-25T20:09:02.631Z,98758.69
2022-12-25T20:11:34.275Z,98766.44
2022-12-25T20:16:51.257Z,98768.84
2022-12-25T20:19:22.145Z,98766.53
2022-12-25T20:21:53.700Z,98768.31
2022-12-25T20:24:34.743Z,98786.53
2022-12-25T20:27:07.357Z,98775.63
2022-12-25T20:29:37.664Z,98761.03
2022-12-25T20:32:07.333Z,98758.06
2022-12-25T20:34:39.254Z,98772.38
2022-12-25T20:37:09.298Z,98754.75
2022-12-25T20:39:43.877Z,98769.50
2022-12-25T20:42:13.541Z,98775.22
2022-12-25T20:44:42.091Z,98784.84
2022-12-25T20:47:12.208Z,98778.72
2022-12-25T20:49:44.255Z,98767.81
2022-12-25T20:52:15.885Z,98774.47
2022-12-25T20:54:49.999Z,98765.69
2022-12-25T20:57:20.752Z,98765.28
2022-12-25T20:59:52.634Z,98757.09
2022-12-25T21:02:34.136Z,98768.94
2022-12-25T21:05:16.893Z,98768.75
2022-12-25T21:07:47.688Z,98776.25
2022-12-25T21:10:17.728Z,98779.63
2022-12-25T21:12:48.367Z,98775.47
2022-12-25T21:15:17.892Z,98774.97
2022-12-25T21:17:46.152Z,98771.69
2022-12-25T21:20:19.207Z,98772.53
2022-12-25T21:22:49.389Z,98774.63
2022-12-25T21:25:19.148Z,98776.66
2022-12-25T21:27:49.948Z,98789.03
2022-12-25T21:30:19.083Z,98793.06
2022-12-25T21:33:05.317Z,98799.22
2022-12-25T21:35:39.681Z,98795.72
2022-12-25T21:38:08.654Z,98800.78
2022-12-25T21:40:38.627Z,98799.41
2022-12-25T21:43:11.327Z,98804.19
2022-12-25T21:45:39.899Z,98811.84
2022-12-25T21:48:08.585Z,98813.19
2022-12-25T21:50:58.129Z,98800.78
2022-12-25T21:53:31.325Z,98798.03
2022-12-25T21:56:02.735Z,98804.00
2022-12-25T21:58:34.764Z,98811.63
2022-12-25T22:01:04.696Z,98811.00
2022-12-25T22:03:41.166Z,98803.44
2022-12-25T22:06:30.121Z,98802.19
2022-12-25T22:09:02.561Z,98815.56
2022-12-25T22:11:49.237Z,98819.47
2022-12-25T22:14:51.325Z,98807.06
2022-12-25T22:17:42.378Z,98821.38
2022-12-25T22:20:26.914Z,98823.19
2022-12-25T22:22:59.376Z,98826.25
2022-12-25T22:25:32.032Z,98828.47
2022-12-25T22:28:03.990Z,98833.16
2022-12-25T22:33:23.059Z,98819.16
2022-12-25T22:36:02.327Z,98831.22
2022-12-25T22:39:00.742Z,98821.72
2022-12-25T22:41:37.737Z,98821.81
2022-12-25T22:44:18.271Z,98825.41
2022-12-25T22:46:51.541Z,98824.47
2022-12-25T22:49:21.074Z,98818.22
2022-12-25T22:51:52.289Z,98815.47
2022-12-25T22:54:26.405Z,98812.81
2022-12-25T22:56:55.100Z,98809.19
2022-12-25T22:59:24.771Z,98816.63
2022-12-25T23:01:54.154Z,98827.97
2022-12-25T23:04:25.952Z,98824.56
2022-12-25T23:06:55.022Z,98824.34
2022-12-25T23:09:28.186Z,98828.47
2022-12-25T23:11:58.162Z,98824.13
2022-12-25T23:14:39.504Z,98825.53
2022-12-25T23:17:29.964Z,98836.63
2022-12-25T23:20:17.045Z,98817.56
2022-12-25T23:23:04.097Z,98808.56
2022-12-25T23:26:14.001Z,98806.25
2022-12-25T23:29:05.314Z,98809.00
2022-12-25T23:31:41.977Z,98793.41
2022-12-25T23:34:13.276Z,98802.09
2022-12-25T23:36:43.975Z,98794.28
2022-12-25T23:39:15.257Z,98804.41
2022-12-25T23:42:03.737Z,98812.38
2022-12-25T23:44:40.475Z,98817.66
2022-12-25T23:47:11.107Z,98827.09
2022-12-25T23:49:41.842Z,98818.63
2022-12-25T23:52:20.419Z,98818.72
2022-12-25T23:54:53.386Z,98824.66
2022-12-25T23:57:25.099Z,98824.25
2022-12-25T23:59:54.378Z,98834.53
